sensor_id;sensor_type;location;lat;lon;timestamp;P1;durP1;ratioP1;P2;durP2;ratioP2
15931;SDS011;8065;49.520;11.284;2022-09-09T00:00:17;1.53;;;1.43;;
15931;SDS011;8065;49.520;11.284;2022-09-09T00:02:45;2.10;;;1.50;;
15931;SDS011;8065;49.520;11.284;2022-09-09T00:05:22;2.40;;;1.40;;
15931;SDS011;8065;49.520;11.284;2022-09-09T00:07:55;1.53;;;1.40;;
15931;SDS011;8065;49.520;11.284;2022-09-09T00:10:26;1.80;;;1.27;;
15931;SDS011;8065;49.520;11.284;2022-09-09T00:12:57;3.70;;;1.40;;
15931;SDS011;8065;49.520;11.284;2022-09-09T00:15:33;2.83;;;1.60;;
15931;SDS011;8065;49.520;11.284;2022-09-09T00:18:07;2.07;;;1.77;;
15931;SDS011;8065;49.520;11.284;2022-09-09T00:20:43;1.97;;;1.70;;
15931;SDS011;8065;49.520;11.284;2022-09-09T00:23:17;3.63;;;1.50;;
15931;SDS011;8065;49.520;11.284;2022-09-09T00:25:52;3.70;;;1.43;;
15931;SDS011;8065;49.520;11.284;2022-09-09T00:28:24;2.37;;;1.37;;
15931;SDS011;8065;49.520;11.284;2022-09-09T00:30:55;1.63;;;1.30;;
15931;SDS011;8065;49.520;11.284;2022-09-09T00:33:22;4.23;;;1.30;;
15931;SDS011;8065;49.520;11.284;2022-09-09T00:35:51;4.37;;;1.97;;
15931;SDS011;8065;49.520;11.284;2022-09-09T00:38:22;2.87;;;1.33;;
15931;SDS011;8065;49.520;11.284;2022-09-09T00:40:52;2.30;;;1.33;;
15931;SDS011;8065;49.520;11.284;2022-09-09T00:43:26;4.50;;;1.40;;
15931;SDS011;8065;49.520;11.284;2022-09-09T00:46:01;1.53;;;1.27;;
15931;SDS011;8065;49.520;11.284;2022-09-09T00:48:50;2.67;;;1.27;;
15931;SDS011;8065;49.520;11.284;2022-09-09T00:51:25;2.87;;;1.60;;
15931;SDS011;8065;49.520;11.284;2022-09-09T00:54:09;2.43;;;1.43;;
15931;SDS011;8065;49.520;11.284;2022-09-09T00:56:51;4.47;;;1.40;;
15931;SDS011;8065;49.520;11.284;2022-09-09T00:59:28;2.43;;;1.43;;
15931;SDS011;8065;49.520;11.284;2022-09-09T01:02:04;1.80;;;1.40;;
15931;SDS011;8065;49.520;11.284;2022-09-09T01:04:39;3.53;;;1.40;;
15931;SDS011;8065;49.520;11.284;2022-09-09T01:07:08;2.20;;;1.67;;
15931;SDS011;8065;49.520;11.284;2022-09-09T01:09:42;2.37;;;1.60;;
15931;SDS011;8065;49.520;11.284;2022-09-09T01:12:24;3.83;;;1.50;;
15931;SDS011;8065;49.520;11.284;2022-09-09T01:14:54;2.97;;;1.30;;
15931;SDS011;8065;49.520;11.284;2022-09-09T01:17:30;3.33;;;1.30;;
15931;SDS011;8065;49.520;11.284;2022-09-09T01:20:02;2.83;;;1.40;;
15931;SDS011;8065;49.520;11.284;2022-09-09T01:22:36;3.93;;;1.60;;
15931;SDS011;8065;49.520;11.284;2022-09-09T01:25:18;3.60;;;1.70;;
15931;SDS011;8065;49.520;11.284;2022-09-09T01:27:52;2.63;;;1.60;;
15931;SDS011;8065;49.520;11.284;2022-09-09T01:30:22;2.80;;;1.63;;
15931;SDS011;8065;49.520;11.284;2022-09-09T01:32:50;2.93;;;1.50;;
15931;SDS011;8065;49.520;11.284;2022-09-09T01:35:22;2.43;;;1.40;;
15931;SDS011;8065;49.520;11.284;2022-09-09T01:37:58;2.20;;;1.47;;
15931;SDS011;8065;49.520;11.284;2022-09-09T01:40:24;3.30;;;1.50;;
15931;SDS011;8065;49.520;11.284;2022-09-09T01:42:53;2.57;;;1.57;;
15931;SDS011;8065;49.520;11.284;2022-09-09T01:45:20;2.40;;;1.37;;
15931;SDS011;8065;49.520;11.284;2022-09-09T01:47:48;3.63;;;1.63;;
15931;SDS011;8065;49.520;11.284;2022-09-09T01:50:15;1.93;;;1.30;;
15931;SDS011;8065;49.520;11.284;2022-09-09T01:52:42;2.57;;;1.47;;
15931;SDS011;8065;49.520;11.284;2022-09-09T01:55:12;2.17;;;1.47;;
15931;SDS011;8065;49.520;11.284;2022-09-09T01:57:40;2.00;;;1.27;;
15931;SDS011;8065;49.520;11.284;2022-09-09T02:00:15;2.13;;;1.37;;
15931;SDS011;8065;49.520;11.284;2022-09-09T02:02:44;3.17;;;1.20;;
15931;SDS011;8065;49.520;11.284;2022-09-09T02:05:22;2.20;;;1.30;;
15931;SDS011;8065;49.520;11.284;2022-09-09T02:07:59;6.83;;;1.60;;
15931;SDS011;8065;49.520;11.284;2022-09-09T02:10:30;2.47;;;1.90;;
15931;SDS011;8065;49.520;11.284;2022-09-09T02:13:00;2.63;;;1.50;;
15931;SDS011;8065;49.520;11.284;2022-09-09T02:15:34;1.80;;;1.50;;
15931;SDS011;8065;49.520;11.284;2022-09-09T02:18:06;4.10;;;1.90;;
15931;SDS011;8065;49.520;11.284;2022-09-09T02:20:36;3.53;;;1.23;;
15931;SDS011;8065;49.520;11.284;2022-09-09T02:23:04;3.47;;;1.47;;
15931;SDS011;8065;49.520;11.284;2022-09-09T02:25:33;3.10;;;1.30;;
15931;SDS011;8065;49.520;11.284;2022-09-09T02:28:02;4.17;;;1.50;;
15931;SDS011;8065;49.520;11.284;2022-09-09T02:30:31;6.73;;;1.90;;
15931;SDS011;8065;49.520;11.284;2022-09-09T02:33:00;5.83;;;1.60;;
15931;SDS011;8065;49.520;11.284;2022-09-09T02:35:31;4.53;;;1.60;;
15931;SDS011;8065;49.520;11.284;2022-09-09T02:38:02;4.30;;;1.70;;
15931;SDS011;8065;49.520;11.284;2022-09-09T02:40:33;3.13;;;1.60;;
15931;SDS011;8065;49.520;11.284;2022-09-09T02:42:59;4.63;;;1.60;;
15931;SDS011;8065;49.520;11.284;2022-09-09T02:45:27;4.97;;;1.70;;
15931;SDS011;8065;49.520;11.284;2022-09-09T02:48:02;1.40;;;1.30;;
15931;SDS011;8065;49.520;11.284;2022-09-09T02:50:39;1.40;;;1.30;;
15931;SDS011;8065;49.520;11.284;2022-09-09T02:53:14;2.73;;;1.80;;
15931;SDS011;8065;49.520;11.284;2022-09-09T02:55:45;1.63;;;1.37;;
15931;SDS011;8065;49.520;11.284;2022-09-09T02:58:13;3.47;;;1.50;;
15931;SDS011;8065;49.520;11.284;2022-09-09T03:00:43;2.37;;;1.60;;
15931;SDS011;8065;49.520;11.284;2022-09-09T03:03:12;3.20;;;1.77;;
15931;SDS011;8065;49.520;11.284;2022-09-09T03:05:41;2.07;;;1.60;;
15931;SDS011;8065;49.520;11.284;2022-09-09T03:08:08;2.63;;;1.20;;
15931;SDS011;8065;49.520;11.284;2022-09-09T03:10:34;2.43;;;1.40;;
15931;SDS011;8065;49.520;11.284;2022-09-09T03:13:02;1.93;;;1.60;;
15931;SDS011;8065;49.520;11.284;2022-09-09T03:15:29;1.90;;;1.50;;
15931;SDS011;8065;49.520;11.284;2022-09-09T03:17:56;1.97;;;1.60;;
15931;SDS011;8065;49.520;11.284;2022-09-09T03:20:24;3.63;;;1.80;;
15931;SDS011;8065;49.520;11.284;2022-09-09T03:22:51;1.67;;;1.57;;
15931;SDS011;8065;49.520;11.284;2022-09-09T03:25:18;1.50;;;1.40;;
15931;SDS011;8065;49.520;11.284;2022-09-09T03:27:45;2.13;;;1.60;;
15931;SDS011;8065;49.520;11.284;2022-09-09T03:30:11;3.10;;;1.60;;
15931;SDS011;8065;49.520;11.284;2022-09-09T03:32:38;3.50;;;1.73;;
15931;SDS011;8065;49.520;11.284;2022-09-09T03:35:05;3.00;;;1.73;;
15931;SDS011;8065;49.520;11.284;2022-09-09T03:37:33;3.07;;;1.60;;
15931;SDS011;8065;49.520;11.284;2022-09-09T03:40:00;1.87;;;1.47;;
15931;SDS011;8065;49.520;11.284;2022-09-09T03:42:27;2.73;;;1.30;;
15931;SDS011;8065;49.520;11.284;2022-09-09T03:44:53;3.70;;;2.10;;
15931;SDS011;8065;49.520;11.284;2022-09-09T03:47:20;2.13;;;1.70;;
15931;SDS011;8065;49.520;11.284;2022-09-09T03:49:47;1.40;;;1.30;;
15931;SDS011;8065;49.520;11.284;2022-09-09T03:52:14;1.60;;;1.40;;
15931;SDS011;8065;49.520;11.284;2022-09-09T03:54:42;2.83;;;1.50;;
15931;SDS011;8065;49.520;11.284;2022-09-09T03:57:09;1.80;;;1.37;;
15931;SDS011;8065;49.520;11.284;2022-09-09T03:59:36;2.27;;;1.50;;
15931;SDS011;8065;49.520;11.284;2022-09-09T04:02:03;4.47;;;1.63;;
15931;SDS011;8065;49.520;11.284;2022-09-09T04:04:29;1.60;;;1.50;;
15931;SDS011;8065;49.520;11.284;2022-09-09T04:06:56;2.00;;;1.40;;
15931;SDS011;8065;49.520;11.284;2022-09-09T04:09:22;3.00;;;1.57;;
15931;SDS011;8065;49.520;11.284;2022-09-09T04:11:50;3.20;;;1.30;;
15931;SDS011;8065;49.520;11.284;2022-09-09T04:14:18;2.70;;;1.80;;
15931;SDS011;8065;49.520;11.284;2022-09-09T04:16:44;2.33;;;1.50;;
15931;SDS011;8065;49.520;11.284;2022-09-09T04:19:11;1.80;;;1.60;;
15931;SDS011;8065;49.520;11.284;2022-09-09T04:21:38;2.13;;;1.70;;
15931;SDS011;8065;49.520;11.284;2022-09-09T04:24:06;4.37;;;1.70;;
15931;SDS011;8065;49.520;11.284;2022-09-09T04:26:32;1.63;;;1.43;;
15931;SDS011;8065;49.520;11.284;2022-09-09T04:29:01;1.90;;;1.80;;
15931;SDS011;8065;49.520;11.284;2022-09-09T04:31:27;3.10;;;1.83;;
15931;SDS011;8065;49.520;11.284;2022-09-09T04:33:54;5.20;;;1.63;;
15931;SDS011;8065;49.520;11.284;2022-09-09T04:36:20;4.10;;;1.70;;
15931;SDS011;8065;49.520;11.284;2022-09-09T04:38:47;2.23;;;1.47;;
15931;SDS011;8065;49.520;11.284;2022-09-09T04:41:14;6.80;;;1.63;;
15931;SDS011;8065;49.520;11.284;2022-09-09T04:43:41;2.40;;;1.60;;
15931;SDS011;8065;49.520;11.284;2022-09-09T04:46:09;2.20;;;1.70;;
15931;SDS011;8065;49.520;11.284;2022-09-09T04:48:36;2.33;;;1.50;;
15931;SDS011;8065;49.520;11.284;2022-09-09T04:51:03;4.07;;;1.77;;
15931;SDS011;8065;49.520;11.284;2022-09-09T04:53:31;3.97;;;1.60;;
15931;SDS011;8065;49.520;11.284;2022-09-09T04:56:02;3.43;;;1.90;;
15931;SDS011;8065;49.520;11.284;2022-09-09T04:58:30;2.83;;;1.73;;
15931;SDS011;8065;49.520;11.284;2022-09-09T05:01:02;1.80;;;1.67;;
15931;SDS011;8065;49.520;11.284;2022-09-09T05:03:31;1.90;;;1.60;;
15931;SDS011;8065;49.520;11.284;2022-09-09T05:06:01;2.53;;;1.50;;
15931;SDS011;8065;49.520;11.284;2022-09-09T05:08:29;3.57;;;1.40;;
15931;SDS011;8065;49.520;11.284;2022-09-09T05:10:56;3.63;;;1.37;;
15931;SDS011;8065;49.520;11.284;2022-09-09T05:13:23;4.27;;;1.50;;
15931;SDS011;8065;49.520;11.284;2022-09-09T05:15:51;1.80;;;1.33;;
15931;SDS011;8065;49.520;11.284;2022-09-09T05:18:18;2.43;;;1.80;;
15931;SDS011;8065;49.520;11.284;2022-09-09T05:20:46;2.63;;;1.60;;
15931;SDS011;8065;49.520;11.284;2022-09-09T05:23:12;2.17;;;1.50;;
15931;SDS011;8065;49.520;11.284;2022-09-09T05:25:39;1.97;;;1.50;;
15931;SDS011;8065;49.520;11.284;2022-09-09T05:28:06;2.93;;;1.80;;
15931;SDS011;8065;49.520;11.284;2022-09-09T05:30:33;3.80;;;1.50;;
15931;SDS011;8065;49.520;11.284;2022-09-09T05:32:59;2.27;;;1.40;;
15931;SDS011;8065;49.520;11.284;2022-09-09T05:35:26;4.20;;;1.57;;
15931;SDS011;8065;49.520;11.284;2022-09-09T05:37:54;1.57;;;1.47;;
15931;SDS011;8065;49.520;11.284;2022-09-09T05:40:25;4.37;;;1.63;;
15931;SDS011;8065;49.520;11.284;2022-09-09T05:42:51;2.87;;;1.70;;
15931;SDS011;8065;49.520;11.284;2022-09-09T05:45:18;3.23;;;1.57;;
15931;SDS011;8065;49.520;11.284;2022-09-09T05:47:45;2.50;;;1.50;;
15931;SDS011;8065;49.520;11.284;2022-09-09T05:50:18;3.60;;;1.43;;
15931;SDS011;8065;49.520;11.284;2022-09-09T05:52:44;3.23;;;1.60;;
15931;SDS011;8065;49.520;11.284;2022-09-09T05:55:12;4.30;;;1.77;;
15931;SDS011;8065;49.520;11.284;2022-09-09T05:57:38;2.47;;;1.40;;
15931;SDS011;8065;49.520;11.284;2022-09-09T06:00:05;1.50;;;1.40;;
15931;SDS011;8065;49.520;11.284;2022-09-09T06:02:33;3.67;;;1.50;;
15931;SDS011;8065;49.520;11.284;2022-09-09T06:05:02;3.43;;;1.63;;
15931;SDS011;8065;49.520;11.284;2022-09-09T06:07:28;1.80;;;1.47;;
15931;SDS011;8065;49.520;11.284;2022-09-09T06:09:55;2.87;;;1.60;;
15931;SDS011;8065;49.520;11.284;2022-09-09T06:12:22;2.57;;;1.90;;
15931;SDS011;8065;49.520;11.284;2022-09-09T06:14:49;3.27;;;1.57;;
15931;SDS011;8065;49.520;11.284;2022-09-09T06:17:16;1.90;;;1.70;;
15931;SDS011;8065;49.520;11.284;2022-09-09T06:19:43;2.20;;;1.60;;
15931;SDS011;8065;49.520;11.284;2022-09-09T06:22:09;3.57;;;1.90;;
15931;SDS011;8065;49.520;11.284;2022-09-09T06:24:37;3.23;;;1.50;;
15931;SDS011;8065;49.520;11.284;2022-09-09T06:27:03;2.43;;;1.70;;
15931;SDS011;8065;49.520;11.284;2022-09-09T06:29:33;2.47;;;1.70;;
15931;SDS011;8065;49.520;11.284;2022-09-09T06:32:00;3.00;;;2.03;;
15931;SDS011;8065;49.520;11.284;2022-09-09T06:34:26;2.63;;;1.80;;
15931;SDS011;8065;49.520;11.284;2022-09-09T06:36:53;3.37;;;2.20;;
15931;SDS011;8065;49.520;11.284;2022-09-09T06:39:22;1.70;;;1.60;;
15931;SDS011;8065;49.520;11.284;2022-09-09T06:41:49;3.80;;;1.50;;
15931;SDS011;8065;49.520;11.284;2022-09-09T06:44:18;4.63;;;1.73;;
15931;SDS011;8065;49.520;11.284;2022-09-09T06:46:46;3.00;;;2.27;;
15931;SDS011;8065;49.520;11.284;2022-09-09T06:49:13;3.87;;;2.03;;
15931;SDS011;8065;49.520;11.284;2022-09-09T06:51:39;5.40;;;1.90;;
15931;SDS011;8065;49.520;11.284;2022-09-09T06:54:07;3.33;;;2.00;;
15931;SDS011;8065;49.520;11.284;2022-09-09T06:56:35;4.77;;;2.10;;
15931;SDS011;8065;49.520;11.284;2022-09-09T06:59:03;4.47;;;2.10;;
15931;SDS011;8065;49.520;11.284;2022-09-09T07:01:31;5.70;;;2.00;;
15931;SDS011;8065;49.520;11.284;2022-09-09T07:04:00;4.63;;;1.87;;
15931;SDS011;8065;49.520;11.284;2022-09-09T07:06:29;2.87;;;2.13;;
15931;SDS011;8065;49.520;11.284;2022-09-09T07:08:58;2.60;;;1.80;;
15931;SDS011;8065;49.520;11.284;2022-09-09T07:11:26;2.67;;;1.87;;
15931;SDS011;8065;49.520;11.284;2022-09-09T07:13:54;2.47;;;1.90;;
15931;SDS011;8065;49.520;11.284;2022-09-09T07:16:21;3.70;;;1.80;;
15931;SDS011;8065;49.520;11.284;2022-09-09T07:18:49;5.17;;;2.00;;
15931;SDS011;8065;49.520;11.284;2022-09-09T07:21:18;2.07;;;1.50;;
15931;SDS011;8065;49.520;11.284;2022-09-09T07:23:45;3.60;;;1.90;;
15931;SDS011;8065;49.520;11.284;2022-09-09T07:26:13;2.70;;;2.00;;
15931;SDS011;8065;49.520;11.284;2022-09-09T07:28:41;4.57;;;1.90;;
15931;SDS011;8065;49.520;11.284;2022-09-09T07:31:12;6.13;;;1.90;;
15931;SDS011;8065;49.520;11.284;2022-09-09T07:33:41;2.73;;;1.57;;
15931;SDS011;8065;49.520;11.284;2022-09-09T07:36:09;2.20;;;1.70;;
15931;SDS011;8065;49.520;11.284;2022-09-09T07:38:40;2.00;;;1.80;;
15931;SDS011;8065;49.520;11.284;2022-09-09T07:41:09;3.00;;;1.40;;
15931;SDS011;8065;49.520;11.284;2022-09-09T07:43:37;3.27;;;1.60;;
15931;SDS011;8065;49.520;11.284;2022-09-09T07:46:04;2.30;;;1.27;;
15931;SDS011;8065;49.520;11.284;2022-09-09T07:48:32;2.80;;;1.77;;
15931;SDS011;8065;49.520;11.284;2022-09-09T07:51:06;2.13;;;1.70;;
15931;SDS011;8065;49.520;11.284;2022-09-09T07:53:33;3.97;;;1.60;;
15931;SDS011;8065;49.520;11.284;2022-09-09T07:56:07;1.40;;;1.27;;
15931;SDS011;8065;49.520;11.284;2022-09-09T07:58:35;1.57;;;1.30;;
15931;SDS011;8065;49.520;11.284;2022-09-09T08:01:06;2.50;;;1.30;;
15931;SDS011;8065;49.520;11.284;2022-09-09T08:03:34;2.70;;;1.20;;
15931;SDS011;8065;49.520;11.284;2022-09-09T08:06:00;4.37;;;1.20;;
15931;SDS011;8065;49.520;11.284;2022-09-09T08:08:28;1.70;;;1.30;;
15931;SDS011;8065;49.520;11.284;2022-09-09T08:11:01;2.37;;;1.43;;
15931;SDS011;8065;49.520;11.284;2022-09-09T08:13:29;1.47;;;1.10;;
15931;SDS011;8065;49.520;11.284;2022-09-09T08:16:03;2.00;;;1.30;;
15931;SDS011;8065;49.520;11.284;2022-09-09T08:18:30;2.50;;;1.37;;
15931;SDS011;8065;49.520;11.284;2022-09-09T08:20:57;2.70;;;1.20;;
15931;SDS011;8065;49.520;11.284;2022-09-09T08:23:23;1.60;;;1.20;;
15931;SDS011;8065;49.520;11.284;2022-09-09T08:25:50;3.63;;;1.37;;
15931;SDS011;8065;49.520;11.284;2022-09-09T08:28:17;2.17;;;1.23;;
15931;SDS011;8065;49.520;11.284;2022-09-09T08:30:45;2.20;;;1.20;;
15931;SDS011;8065;49.520;11.284;2022-09-09T08:33:12;2.73;;;1.10;;
15931;SDS011;8065;49.520;11.284;2022-09-09T08:35:39;2.10;;;1.20;;
15931;SDS011;8065;49.520;11.284;2022-09-09T08:38:06;1.10;;;1.00;;
15931;SDS011;8065;49.520;11.284;2022-09-09T08:40:33;2.20;;;1.60;;
15931;SDS011;8065;49.520;11.284;2022-09-09T08:43:06;3.10;;;1.20;;
15931;SDS011;8065;49.520;11.284;2022-09-09T08:45:34;2.37;;;1.10;;
15931;SDS011;8065;49.520;11.284;2022-09-09T08:48:13;3.03;;;1.00;;
15931;SDS011;8065;49.520;11.284;2022-09-09T08:50:50;2.50;;;1.27;;
15931;SDS011;8065;49.520;11.284;2022-09-09T08:53:20;1.60;;;0.90;;
15931;SDS011;8065;49.520;11.284;2022-09-09T08:55:50;2.07;;;0.83;;
15931;SDS011;8065;49.520;11.284;2022-09-09T08:58:20;2.80;;;1.00;;
15931;SDS011;8065;49.520;11.284;2022-09-09T09:03:50;1.83;;;1.03;;
15931;SDS011;8065;49.520;11.284;2022-09-09T09:06:26;3.73;;;1.13;;
15931;SDS011;8065;49.520;11.284;2022-09-09T09:09:02;2.07;;;1.00;;
15931;SDS011;8065;49.520;11.284;2022-09-09T09:11:35;1.70;;;0.93;;
15931;SDS011;8065;49.520;11.284;2022-09-09T09:14:05;4.20;;;1.20;;
15931;SDS011;8065;49.520;11.284;2022-09-09T09:16:38;2.97;;;1.00;;
15931;SDS011;8065;49.520;11.284;2022-09-09T09:19:20;1.73;;;0.80;;
15931;SDS011;8065;49.520;11.284;2022-09-09T09:21:51;1.87;;;1.00;;
15931;SDS011;8065;49.520;11.284;2022-09-09T09:24:25;2.37;;;0.90;;
15931;SDS011;8065;49.520;11.284;2022-09-09T09:26:57;2.27;;;1.00;;
15931;SDS011;8065;49.520;11.284;2022-09-09T09:29:26;0.90;;;0.80;;
15931;SDS011;8065;49.520;11.284;2022-09-09T09:31:54;2.57;;;0.80;;
15931;SDS011;8065;49.520;11.284;2022-09-09T09:34:24;1.17;;;0.90;;
15931;SDS011;8065;49.520;11.284;2022-09-09T09:36:52;3.10;;;1.00;;
15931;SDS011;8065;49.520;11.284;2022-09-09T09:39:23;1.30;;;0.77;;
15931;SDS011;8065;49.520;11.284;2022-09-09T09:41:51;1.63;;;1.07;;
15931;SDS011;8065;49.520;11.284;2022-09-09T09:44:22;3.17;;;1.10;;
15931;SDS011;8065;49.520;11.284;2022-09-09T09:46:49;1.70;;;1.00;;
15931;SDS011;8065;49.520;11.284;2022-09-09T09:49:16;2.13;;;0.83;;
15931;SDS011;8065;49.520;11.284;2022-09-09T09:51:44;3.50;;;0.90;;
15931;SDS011;8065;49.520;11.284;2022-09-09T09:54:17;3.67;;;1.00;;
15931;SDS011;8065;49.520;11.284;2022-09-09T09:56:48;1.70;;;1.10;;
15931;SDS011;8065;49.520;11.284;2022-09-09T09:59:22;3.07;;;1.00;;
15931;SDS011;8065;49.520;11.284;2022-09-09T10:02:05;2.10;;;0.70;;
15931;SDS011;8065;49.520;11.284;2022-09-09T10:04:39;2.10;;;0.87;;
15931;SDS011;8065;49.520;11.284;2022-09-09T10:07:11;2.00;;;1.00;;
15931;SDS011;8065;49.520;11.284;2022-09-09T10:09:37;1.90;;;0.90;;
15931;SDS011;8065;49.520;11.284;2022-09-09T10:12:06;3.73;;;0.90;;
15931;SDS011;8065;49.520;11.284;2022-09-09T10:14:40;1.17;;;0.60;;
15931;SDS011;8065;49.520;11.284;2022-09-09T10:17:19;0.90;;;0.63;;
15931;SDS011;8065;49.520;11.284;2022-09-09T10:19:56;2.43;;;0.90;;
15931;SDS011;8065;49.520;11.284;2022-09-09T10:22:40;3.27;;;0.70;;
15931;SDS011;8065;49.520;11.284;2022-09-09T10:25:25;1.67;;;0.90;;
15931;SDS011;8065;49.520;11.284;2022-09-09T10:28:07;1.63;;;0.70;;
15931;SDS011;8065;49.520;11.284;2022-09-09T10:30:49;1.00;;;0.80;;
15931;SDS011;8065;49.520;11.284;2022-09-09T10:33:26;1.03;;;0.80;;
15931;SDS011;8065;49.520;11.284;2022-09-09T10:35:59;1.00;;;0.60;;
15931;SDS011;8065;49.520;11.284;2022-09-09T10:38:37;1.13;;;0.80;;
15931;SDS011;8065;49.520;11.284;2022-09-09T10:41:11;2.67;;;0.90;;
15931;SDS011;8065;49.520;11.284;2022-09-09T10:44:00;3.17;;;0.90;;
15931;SDS011;8065;49.520;11.284;2022-09-09T10:46:42;2.10;;;0.93;;
15931;SDS011;8065;49.520;11.284;2022-09-09T10:49:21;1.53;;;0.80;;
15931;SDS011;8065;49.520;11.284;2022-09-09T10:51:59;3.27;;;1.00;;
15931;SDS011;8065;49.520;11.284;2022-09-09T10:54:42;2.73;;;1.00;;
15931;SDS011;8065;49.520;11.284;2022-09-09T10:57:22;2.57;;;0.80;;
15931;SDS011;8065;49.520;11.284;2022-09-09T10:59:57;2.83;;;0.90;;
15931;SDS011;8065;49.520;11.284;2022-09-09T11:02:30;2.67;;;0.87;;
15931;SDS011;8065;49.520;11.284;2022-09-09T11:04:58;2.60;;;0.87;;
15931;SDS011;8065;49.520;11.284;2022-09-09T11:07:30;2.53;;;1.00;;
15931;SDS011;8065;49.520;11.284;2022-09-09T11:10:07;1.23;;;0.80;;
15931;SDS011;8065;49.520;11.284;2022-09-09T11:12:46;2.70;;;0.97;;
15931;SDS011;8065;49.520;11.284;2022-09-09T11:15:17;3.63;;;0.80;;
15931;SDS011;8065;49.520;11.284;2022-09-09T11:17:47;1.17;;;0.80;;
15931;SDS011;8065;49.520;11.284;2022-09-09T11:20:16;1.43;;;0.63;;
15931;SDS011;8065;49.520;11.284;2022-09-09T11:22:44;3.03;;;0.80;;
15931;SDS011;8065;49.520;11.284;2022-09-09T11:25:17;1.10;;;0.87;;
15931;SDS011;8065;49.520;11.284;2022-09-09T11:27:51;0.70;;;0.70;;
15931;SDS011;8065;49.520;11.284;2022-09-09T11:30:33;2.57;;;0.70;;
15931;SDS011;8065;49.520;11.284;2022-09-09T11:33:18;0.60;;;0.60;;
15931;SDS011;8065;49.520;11.284;2022-09-09T11:36:10;2.83;;;0.80;;
15931;SDS011;8065;49.520;11.284;2022-09-09T11:38:47;2.17;;;1.00;;
15931;SDS011;8065;49.520;11.284;2022-09-09T11:41:18;1.83;;;0.80;;
15931;SDS011;8065;49.520;11.284;2022-09-09T11:43:47;0.97;;;0.80;;
15931;SDS011;8065;49.520;11.284;2022-09-09T11:46:16;2.00;;;0.87;;
15931;SDS011;8065;49.520;11.284;2022-09-09T11:48:45;1.40;;;0.70;;
15931;SDS011;8065;49.520;11.284;2022-09-09T11:51:25;0.97;;;0.80;;
15931;SDS011;8065;49.520;11.284;2022-09-09T11:53:53;2.00;;;0.70;;
15931;SDS011;8065;49.520;11.284;2022-09-09T11:56:25;1.23;;;0.70;;
15931;SDS011;8065;49.520;11.284;2022-09-09T11:58:56;2.90;;;0.67;;
15931;SDS011;8065;49.520;11.284;2022-09-09T12:01:38;2.87;;;0.70;;
15931;SDS011;8065;49.520;11.284;2022-09-09T12:04:20;2.47;;;0.70;;
15931;SDS011;8065;49.520;11.284;2022-09-09T12:06:56;1.97;;;1.00;;
15931;SDS011;8065;49.520;11.284;2022-09-09T12:09:28;1.90;;;0.90;;
15931;SDS011;8065;49.520;11.284;2022-09-09T12:12:22;1.20;;;0.87;;
15931;SDS011;8065;49.520;11.284;2022-09-09T12:14:56;1.27;;;0.70;;
15931;SDS011;8065;49.520;11.284;2022-09-09T12:17:43;2.93;;;0.70;;
15931;SDS011;8065;49.520;11.284;2022-09-09T12:20:12;2.73;;;0.97;;
15931;SDS011;8065;49.520;11.284;2022-09-09T12:22:44;2.70;;;0.77;;
15931;SDS011;8065;49.520;11.284;2022-09-09T12:25:21;1.30;;;0.70;;
15931;SDS011;8065;49.520;11.284;2022-09-09T12:27:58;2.70;;;0.97;;
15931;SDS011;8065;49.520;11.284;2022-09-09T12:30:32;1.60;;;0.90;;
15931;SDS011;8065;49.520;11.284;2022-09-09T12:33:07;2.67;;;0.80;;
15931;SDS011;8065;49.520;11.284;2022-09-09T12:35:37;2.27;;;1.00;;
15931;SDS011;8065;49.520;11.284;2022-09-09T12:38:05;1.93;;;0.90;;
15931;SDS011;8065;49.520;11.284;2022-09-09T12:40:37;1.70;;;0.70;;
15931;SDS011;8065;49.520;11.284;2022-09-09T12:43:17;1.60;;;0.70;;
15931;SDS011;8065;49.520;11.284;2022-09-09T12:45:44;3.70;;;1.03;;
15931;SDS011;8065;49.520;11.284;2022-09-09T12:48:11;1.43;;;0.70;;
15931;SDS011;8065;49.520;11.284;2022-09-09T12:50:43;2.93;;;0.70;;
15931;SDS011;8065;49.520;11.284;2022-09-09T12:53:12;1.70;;;0.60;;
15931;SDS011;8065;49.520;11.284;2022-09-09T12:55:51;3.23;;;0.60;;
15931;SDS011;8065;49.520;11.284;2022-09-09T12:58:22;1.30;;;0.80;;
15931;SDS011;8065;49.520;11.284;2022-09-09T13:00:50;1.20;;;0.60;;
15931;SDS011;8065;49.520;11.284;2022-09-09T13:03:18;1.20;;;0.50;;
15931;SDS011;8065;49.520;11.284;2022-09-09T13:05:46;1.63;;;0.50;;
15931;SDS011;8065;49.520;11.284;2022-09-09T13:08:13;1.63;;;0.80;;
15931;SDS011;8065;49.520;11.284;2022-09-09T13:10:46;1.77;;;0.70;;
15931;SDS011;8065;49.520;11.284;2022-09-09T13:13:14;1.87;;;0.87;;
15931;SDS011;8065;49.520;11.284;2022-09-09T13:15:49;1.30;;;0.77;;
15931;SDS011;8065;49.520;11.284;2022-09-09T13:18:19;1.40;;;0.77;;
15931;SDS011;8065;49.520;11.284;2022-09-09T13:20:48;1.47;;;0.63;;
15931;SDS011;8065;49.520;11.284;2022-09-09T13:23:16;0.93;;;0.80;;
15931;SDS011;8065;49.520;11.284;2022-09-09T13:25:52;5.43;;;1.23;;
15931;SDS011;8065;49.520;11.284;2022-09-09T13:28:20;3.57;;;0.90;;
15931;SDS011;8065;49.520;11.284;2022-09-09T13:30:57;1.37;;;0.63;;
15931;SDS011;8065;49.520;11.284;2022-09-09T13:33:33;2.47;;;0.60;;
15931;SDS011;8065;49.520;11.284;2022-09-09T13:36:03;3.30;;;0.63;;
15931;SDS011;8065;49.520;11.284;2022-09-09T13:38:32;1.97;;;0.70;;
15931;SDS011;8065;49.520;11.284;2022-09-09T13:41:02;4.03;;;0.70;;
15931;SDS011;8065;49.520;11.284;2022-09-09T13:43:31;2.70;;;0.80;;
15931;SDS011;8065;49.520;11.284;2022-09-09T13:46:03;1.33;;;0.67;;
15931;SDS011;8065;49.520;11.284;2022-09-09T13:48:31;2.17;;;0.67;;
15931;SDS011;8065;49.520;11.284;2022-09-09T13:50:58;1.60;;;0.80;;
15931;SDS011;8065;49.520;11.284;2022-09-09T13:53:26;2.07;;;0.70;;
15931;SDS011;8065;49.520;11.284;2022-09-09T13:55:53;1.80;;;0.70;;
15931;SDS011;8065;49.520;11.284;2022-09-09T13:58:21;1.57;;;0.60;;
15931;SDS011;8065;49.520;11.284;2022-09-09T14:00:50;0.93;;;0.60;;
15931;SDS011;8065;49.520;11.284;2022-09-09T14:03:18;0.97;;;0.63;;
15931;SDS011;8065;49.520;11.284;2022-09-09T14:05:45;1.77;;;0.70;;
15931;SDS011;8065;49.520;11.284;2022-09-09T14:08:15;0.93;;;0.60;;
15931;SDS011;8065;49.520;11.284;2022-09-09T14:10:47;1.77;;;0.50;;
15931;SDS011;8065;49.520;11.284;2022-09-09T14:13:14;1.10;;;0.50;;
15931;SDS011;8065;49.520;11.284;2022-09-09T14:15:40;1.03;;;0.40;;
15931;SDS011;8065;49.520;11.284;2022-09-09T14:18:08;0.57;;;0.40;;
15931;SDS011;8065;49.520;11.284;2022-09-09T14:20:38;2.20;;;0.80;;
15931;SDS011;8065;49.520;11.284;2022-09-09T14:23:04;1.67;;;0.57;;
15931;SDS011;8065;49.520;11.284;2022-09-09T14:25:31;1.23;;;0.60;;
15931;SDS011;8065;49.520;11.284;2022-09-09T14:27:58;1.10;;;0.60;;
15931;SDS011;8065;49.520;11.284;2022-09-09T14:30:24;1.87;;;0.60;;
15931;SDS011;8065;49.520;11.284;2022-09-09T14:32:51;2.63;;;0.50;;
15931;SDS011;8065;49.520;11.284;2022-09-09T14:35:17;1.63;;;0.77;;
15931;SDS011;8065;49.520;11.284;2022-09-09T14:37:45;1.50;;;0.80;;
15931;SDS011;8065;49.520;11.284;2022-09-09T14:40:12;1.93;;;0.40;;
15931;SDS011;8065;49.520;11.284;2022-09-09T14:42:39;1.03;;;0.70;;
15931;SDS011;8065;49.520;11.284;2022-09-09T14:45:06;3.60;;;1.10;;
15931;SDS011;8065;49.520;11.284;2022-09-09T14:47:33;2.50;;;0.80;;
15931;SDS011;8065;49.520;11.284;2022-09-09T14:50:00;2.00;;;0.70;;
15931;SDS011;8065;49.520;11.284;2022-09-09T14:52:29;2.13;;;0.80;;
15931;SDS011;8065;49.520;11.284;2022-09-09T14:54:57;1.60;;;0.70;;
15931;SDS011;8065;49.520;11.284;2022-09-09T14:57:23;2.20;;;0.70;;
15931;SDS011;8065;49.520;11.284;2022-09-09T14:59:50;0.50;;;0.50;;
15931;SDS011;8065;49.520;11.284;2022-09-09T15:02:16;1.27;;;0.80;;
15931;SDS011;8065;49.520;11.284;2022-09-09T15:04:43;2.97;;;0.90;;
15931;SDS011;8065;49.520;11.284;2022-09-09T15:07:10;4.30;;;1.30;;
15931;SDS011;8065;49.520;11.284;2022-09-09T15:09:37;3.67;;;1.30;;